Time;durP1;ratioP1;P1;durP2;ratioP2;P2;SDS_P1;SDS_P2;PMS_P1;PMS_P2;Temp;Humidity;BMP_temperature;BMP_pressure;BME280_temperature;BME280_humidity;BME280_pressure;Samples;Min_cycle;Max_cycle;Signal;HPM_P1;HPM_P2
2023/02/12 00:01:11;;;;;;;33.65;24.85;;;;;;;;;;5032600;28;20961;-69
2023/02/12 00:03:40;;;;;;;39.72;25.63;;;;;;;;;;5033746;28;20277;-69
2023/02/12 00:06:07;;;;;;;37.53;23.33;;;;;;;;;;5033441;28;20225;-69
2023/02/12 00:08:35;;;;;;;38.47;25.03;;;;;;;;;;5035259;28;20449;-69
2023/02/12 00:11:07;;;;;;;40.17;26.30;;;;;;;;;;5032252;28;20437;-71
2023/02/12 00:13:35;;;;;;;34.63;23.97;;;;;;;;;;5048534;28;20470;-69
2023/02/12 00:16:04;;;;;;;33.42;24.67;;;;;;;;;;5052141;28;20433;-67
2023/02/12 00:18:31;;;;;;;36.97;24.77;;;;;;;;;;5052100;28;20187;-68
2023/02/12 00:21:01;;;;;;;33.97;25.23;;;;;;;;;;5052104;28;20433;-68
2023/02/12 00:23:28;;;;;;;42.60;25.37;;;;;;;;;;5052166;28;20441;-68
2023/02/12 00:25:56;;;;;;;41.70;26.53;;;;;;;;;;5052670;28;20444;-68
2023/02/12 00:28:23;;;;;;;35.20;25.17;;;;;;;;;;5052096;28;20444;-66
2023/02/12 00:30:50;;;;;;;37.57;25.83;;;;;;;;;;5052264;28;20199;-66
2023/02/12 00:33:17;;;;;;;36.27;27.33;;;;;;;;;;5053648;28;20473;-69
2023/02/12 00:35:44;;;;;;;32.53;24.57;;;;;;;;;;5055695;28;20445;-67
2023/02/12 00:38:13;;;;;;;32.20;23.65;;;;;;;;;;5055726;28;20444;-68
2023/02/12 00:40:40;;;;;;;33.53;23.65;;;;;;;;;;5056080;28;20547;-68
2023/02/12 00:43:07;;;;;;;38.50;25.20;;;;;;;;;;5055918;28;20190;-68
2023/02/12 00:45:36;;;;;;;37.37;25.30;;;;;;;;;;5055610;28;20187;-68
2023/02/12 00:48:04;;;;;;;37.83;24.45;;;;;;;;;;5056016;28;20441;-68
2023/02/12 00:50:31;;;;;;;40.73;25.70;;;;;;;;;;5055851;28;20195;-68
2023/02/12 00:52:58;;;;;;;34.23;23.73;;;;;;;;;;5055358;28;21052;-68
2023/02/12 00:55:27;;;;;;;39.90;26.43;;;;;;;;;;5055281;28;20441;-68
2023/02/12 00:57:54;;;;;;;39.23;26.57;;;;;;;;;;5055549;28;20532;-69
2023/02/12 01:00:22;;;;;;;39.50;26.13;;;;;;;;;;5055310;28;20555;-69
2023/02/12 01:02:49;;;;;;;38.67;24.50;;;;;;;;;;5043554;28;20637;-68
2023/02/12 01:05:16;;;;;;;38.13;26.57;;;;;;;;;;5035719;28;20805;-68
2023/02/12 01:07:43;;;;;;;37.35;26.02;;;;;;;;;;5035212;28;20435;-68
2023/02/12 01:10:11;;;;;;;43.73;27.53;;;;;;;;;;5038354;28;20223;-69
2023/02/12 01:12:39;;;;;;;36.65;24.85;;;;;;;;;;5035084;28;20469;-68
2023/02/12 01:15:09;;;;;;;41.70;25.10;;;;;;;;;;5035494;28;20208;-68
2023/02/12 01:17:36;;;;;;;39.33;26.20;;;;;;;;;;5034939;28;20596;-68
2023/02/12 01:20:06;;;;;;;40.60;24.77;;;;;;;;;;5035399;28;20433;-68
2023/02/12 01:22:34;;;;;;;35.58;25.40;;;;;;;;;;5035182;28;20585;-68
2023/02/12 01:25:01;;;;;;;37.60;25.30;;;;;;;;;;5035138;28;20200;-68
2023/02/12 01:27:28;;;;;;;47.95;26.45;;;;;;;;;;5034870;28;20435;-68
2023/02/12 01:29:57;;;;;;;41.87;25.47;;;;;;;;;;5035192;28;20196;-68
2023/02/12 01:32:24;;;;;;;38.20;26.17;;;;;;;;;;5035315;28;20791;-68
2023/02/12 01:34:51;;;;;;;42.72;26.67;;;;;;;;;;5035048;28;20503;-68
2023/02/12 01:37:19;;;;;;;37.30;25.07;;;;;;;;;;5034648;28;20191;-69
2023/02/12 01:39:46;;;;;;;39.75;26.02;;;;;;;;;;5034974;28;20468;-68
2023/02/12 01:42:14;;;;;;;42.80;26.07;;;;;;;;;;5034964;28;20192;-68
2023/02/12 01:44:44;;;;;;;42.45;25.40;;;;;;;;;;5034144;28;20435;-68
2023/02/12 01:47:17;;;;;;;39.63;25.20;;;;;;;;;;5034927;28;20180;-68
2023/02/12 01:49:46;;;;;;;38.47;26.33;;;;;;;;;;5035215;28;20187;-68
2023/02/12 01:52:15;;;;;;;39.03;25.83;;;;;;;;;;5034484;28;20191;-68
2023/02/12 01:54:42;;;;;;;41.42;25.45;;;;;;;;;;5034299;28;20226;-68
2023/02/12 01:57:12;;;;;;;39.90;26.38;;;;;;;;;;5034561;28;20227;-68
2023/02/12 01:59:39;;;;;;;35.28;25.42;;;;;;;;;;5034638;28;20187;-68
2023/02/12 02:02:07;;;;;;;32.65;23.58;;;;;;;;;;5041969;28;20194;-69
2023/02/12 02:04:38;;;;;;;45.95;25.30;;;;;;;;;;5054291;28;20221;-68
2023/02/12 02:07:07;;;;;;;42.85;24.65;;;;;;;;;;5054816;28;20183;-68
2023/02/12 02:09:35;;;;;;;34.40;25.10;;;;;;;;;;5044296;28;20188;-68
2023/02/12 02:14:48;;;;;;;47.30;25.33;;;;;;;;;;5034219;28;20205;-68
2023/02/12 02:17:21;;;;;;;36.92;25.05;;;;;;;;;;5034319;28;20192;-68
2023/02/12 02:20:03;;;;;;;34.10;23.48;;;;;;;;;;5033929;28;20176;-68
2023/02/12 02:22:32;;;;;;;38.63;23.40;;;;;;;;;;5034777;28;20187;-68
2023/02/12 02:25:20;;;;;;;40.38;25.25;;;;;;;;;;5033813;28;20200;-68
2023/02/12 02:27:52;;;;;;;34.70;24.95;;;;;;;;;;5034219;28;20205;-68
2023/02/12 02:30:28;;;;;;;39.20;23.85;;;;;;;;;;5034595;28;20206;-68
2023/02/12 02:33:05;;;;;;;41.08;24.15;;;;;;;;;;5034511;28;20186;-69
2023/02/12 02:35:37;;;;;;;37.08;24.00;;;;;;;;;;5033606;28;20223;-68
2023/02/12 02:38:08;;;;;;;37.60;24.93;;;;;;;;;;5033999;28;20190;-67
2023/02/12 02:40:39;;;;;;;40.70;25.20;;;;;;;;;;5033722;28;20418;-68
2023/02/12 02:43:08;;;;;;;38.38;25.08;;;;;;;;;;5034344;28;20183;-69
2023/02/12 02:45:38;;;;;;;35.63;24.00;;;;;;;;;;5033421;28;20653;-68
2023/02/12 02:48:10;;;;;;;38.60;25.05;;;;;;;;;;5033888;28;20179;-69
2023/02/12 02:50:40;;;;;;;39.80;24.58;;;;;;;;;;5033971;28;20528;-68
2023/02/12 02:53:09;;;;;;;36.50;23.35;;;;;;;;;;5033640;28;20191;-68
2023/02/12 02:55:38;;;;;;;41.08;25.48;;;;;;;;;;5033353;28;20216;-68
2023/02/12 02:58:08;;;;;;;37.72;23.38;;;;;;;;;;5033433;28;20222;-69
2023/02/12 03:00:37;;;;;;;38.33;24.38;;;;;;;;;;5033241;28;20621;-68
2023/02/12 03:03:08;;;;;;;40.38;22.48;;;;;;;;;;5036378;28;20200;-68
2023/02/12 03:05:40;;;;;;;39.78;23.67;;;;;;;;;;5033347;28;20215;-68
2023/02/12 03:08:10;;;;;;;37.83;23.58;;;;;;;;;;5033019;28;20179;-68
2023/02/12 03:10:40;;;;;;;35.47;23.08;;;;;;;;;;5066389;28;20189;-68
2023/02/12 03:13:10;;;;;;;37.72;23.50;;;;;;;;;;5073442;28;20198;-68
2023/02/12 03:15:39;;;;;;;34.78;24.25;;;;;;;;;;5072722;28;20217;-68
2023/02/12 03:18:08;;;;;;;33.92;23.73;;;;;;;;;;5073454;28;20194;-68
2023/02/12 03:20:40;;;;;;;36.00;24.55;;;;;;;;;;5072889;28;20194;-68
2023/02/12 03:23:10;;;;;;;34.88;23.92;;;;;;;;;;5073422;28;20178;-68
2023/02/12 03:25:39;;;;;;;40.72;24.25;;;;;;;;;;5072650;28;20189;-68
2023/02/12 03:28:09;;;;;;;44.70;25.38;;;;;;;;;;5073155;28;20208;-68
2023/02/12 03:30:41;;;;;;;42.22;24.67;;;;;;;;;;5073346;28;20205;-68
2023/02/12 03:33:14;;;;;;;34.67;23.33;;;;;;;;;;5073243;28;20198;-68
2023/02/12 03:35:46;;;;;;;36.10;25.40;;;;;;;;;;5073140;28;20480;-68
2023/02/12 03:38:17;;;;;;;35.25;26.25;;;;;;;;;;5072972;28;20427;-68
2023/02/12 03:40:47;;;;;;;35.63;24.27;;;;;;;;;;5073001;28;20200;-68
2023/02/12 03:43:19;;;;;;;38.22;24.58;;;;;;;;;;5072568;28;20186;-68
2023/02/12 03:45:50;;;;;;;37.08;26.83;;;;;;;;;;5072849;28;20190;-68
2023/02/12 03:48:21;;;;;;;33.70;23.20;;;;;;;;;;5072928;28;20183;-68
2023/02/12 03:50:53;;;;;;;38.28;23.77;;;;;;;;;;5072810;28;20178;-67
2023/02/12 03:53:21;;;;;;;32.58;23.73;;;;;;;;;;5072874;28;20185;-68
2023/02/12 03:55:49;;;;;;;35.13;24.38;;;;;;;;;;5072456;28;20214;-68
2023/02/12 03:58:18;;;;;;;37.20;24.20;;;;;;;;;;5072666;28;20553;-68
2023/02/12 04:00:46;;;;;;;43.95;24.80;;;;;;;;;;5072382;28;20634;-69
2023/02/12 04:03:13;;;;;;;38.10;25.27;;;;;;;;;;5039547;28;20203;-68
2023/02/12 04:05:40;;;;;;;40.60;24.70;;;;;;;;;;5032422;28;20227;-68
2023/02/12 04:08:10;;;;;;;38.60;24.65;;;;;;;;;;5033858;28;20230;-69
2023/02/12 04:10:40;;;;;;;37.42;25.08;;;;;;;;;;5056256;28;20202;-68
2023/02/12 04:13:11;;;;;;;37.30;24.30;;;;;;;;;;5056588;28;20183;-68
2023/02/12 04:15:45;;;;;;;42.55;26.30;;;;;;;;;;5056642;28;20298;-68
2023/02/12 04:18:15;;;;;;;36.83;24.60;;;;;;;;;;5056540;28;20217;-68
2023/02/12 04:20:50;;;;;;;33.58;22.30;;;;;;;;;;5056634;28;20366;-69
2023/02/12 04:23:23;;;;;;;35.97;25.25;;;;;;;;;;5056063;28;20178;-68
2023/02/12 04:25:53;;;;;;;34.70;23.05;;;;;;;;;;5056518;28;20225;-69
2023/02/12 04:28:28;;;;;;;41.83;24.30;;;;;;;;;;5056225;28;20201;-68
2023/02/12 04:30:57;;;;;;;37.10;24.83;;;;;;;;;;5056478;28;20490;-69
2023/02/12 04:33:26;;;;;;;37.40;24.42;;;;;;;;;;5056010;28;20187;-68
2023/02/12 04:35:57;;;;;;;41.90;25.38;;;;;;;;;;5055993;28;20217;-68
2023/02/12 04:38:27;;;;;;;36.03;24.25;;;;;;;;;;5056151;28;20187;-68
2023/02/12 04:40:55;;;;;;;41.05;27.42;;;;;;;;;;5056163;28;20220;-69
2023/02/12 04:43:28;;;;;;;37.67;24.90;;;;;;;;;;5056046;28;20199;-69
2023/02/12 04:45:55;;;;;;;37.33;24.67;;;;;;;;;;5052147;28;20209;-69
2023/02/12 04:48:23;;;;;;;36.63;25.83;;;;;;;;;;5054796;28;20191;-69
2023/02/12 04:50:50;;;;;;;35.67;24.35;;;;;;;;;;5054728;28;20198;-69
2023/02/12 04:53:17;;;;;;;41.88;25.63;;;;;;;;;;5055277;28;20202;-69
2023/02/12 04:55:46;;;;;;;38.60;24.23;;;;;;;;;;5054477;28;20218;-69
2023/02/12 04:58:14;;;;;;;35.40;22.80;;;;;;;;;;5054990;28;20671;-69
2023/02/12 05:00:41;;;;;;;33.25;23.73;;;;;;;;;;5054743;28;20441;-69
2023/02/12 05:03:08;;;;;;;34.92;23.63;;;;;;;;;;5054753;28;20191;-69
2023/02/12 05:05:35;;;;;;;39.83;25.70;;;;;;;;;;5054296;28;20226;-69
2023/02/12 05:08:03;;;;;;;42.72;26.05;;;;;;;;;;5054831;28;20438;-69
2023/02/12 05:10:30;;;;;;;39.70;24.90;;;;;;;;;;5054597;28;20194;-69
2023/02/12 05:12:58;;;;;;;44.03;25.27;;;;;;;;;;5054881;28;20187;-69
2023/02/12 05:15:25;;;;;;;38.60;25.50;;;;;;;;;;5054294;28;20203;-69
2023/02/12 05:17:53;;;;;;;44.13;26.15;;;;;;;;;;5054696;28;20194;-69
2023/02/12 05:20:20;;;;;;;37.85;24.02;;;;;;;;;;5053194;28;20636;-69
2023/02/12 05:22:47;;;;;;;42.73;25.87;;;;;;;;;;5054842;28;20198;-69
2023/02/12 05:25:14;;;;;;;40.78;24.83;;;;;;;;;;5055057;28;20439;-69
2023/02/12 05:27:41;;;;;;;35.70;24.70;;;;;;;;;;5055065;28;20190;-68
2023/02/12 05:30:11;;;;;;;41.17;25.40;;;;;;;;;;5055066;28;20213;-69
2023/02/12 05:32:38;;;;;;;40.17;25.55;;;;;;;;;;5054648;28;20197;-68
2023/02/12 05:35:05;;;;;;;35.17;25.20;;;;;;;;;;5054625;28;20219;-71
2023/02/12 05:37:35;;;;;;;40.00;25.60;;;;;;;;;;5055227;28;20191;-69
2023/02/12 05:40:02;;;;;;;34.65;24.55;;;;;;;;;;5054320;28;20281;-69
2023/02/12 05:42:29;;;;;;;39.00;24.20;;;;;;;;;;5054587;28;20198;-68
2023/02/12 05:44:57;;;;;;;36.03;24.42;;;;;;;;;;5054836;28;20203;-69
2023/02/12 05:47:25;;;;;;;36.47;24.30;;;;;;;;;;5054510;28;20636;-69
2023/02/12 05:49:52;;;;;;;37.08;25.50;;;;;;;;;;5054680;28;20191;-69
2023/02/12 05:52:20;;;;;;;44.72;25.73;;;;;;;;;;5054762;28;20194;-69
2023/02/12 05:54:49;;;;;;;41.57;25.63;;;;;;;;;;5054194;28;20226;-69
2023/02/12 05:57:16;;;;;;;36.30;23.93;;;;;;;;;;5054259;28;20430;-69
2023/02/12 05:59:44;;;;;;;36.30;25.65;;;;;;;;;;5053792;28;20445;-69
2023/02/12 06:02:11;;;;;;;45.50;27.10;;;;;;;;;;5054030;28;20191;-68
2023/02/12 06:04:40;;;;;;;40.63;25.77;;;;;;;;;;5054219;28;20228;-69
2023/02/12 06:07:07;;;;;;;40.47;24.47;;;;;;;;;;5053936;28;20670;-68
2023/02/12 06:09:34;;;;;;;36.23;22.97;;;;;;;;;;5054165;28;20440;-68
2023/02/12 06:12:02;;;;;;;33.33;24.90;;;;;;;;;;5054159;28;20429;-69
2023/02/12 06:14:29;;;;;;;40.72;26.80;;;;;;;;;;5054501;28;20598;-70
2023/02/12 06:16:56;;;;;;;44.63;25.50;;;;;;;;;;5053694;28;20191;-69
2023/02/12 06:19:24;;;;;;;40.63;24.80;;;;;;;;;;5054062;28;20441;-69
2023/02/12 06:21:52;;;;;;;36.25;26.70;;;;;;;;;;5053171;28;20441;-69
2023/02/12 06:24:19;;;;;;;41.45;26.15;;;;;;;;;;5054179;28;20194;-69
2023/02/12 06:26:50;;;;;;;39.40;25.93;;;;;;;;;;5053839;28;20195;-69
2023/02/12 06:29:17;;;;;;;43.35;26.25;;;;;;;;;;5053745;28;20434;-68
2023/02/12 06:31:44;;;;;;;35.00;24.88;;;;;;;;;;5053323;28;20196;-69
2023/02/12 06:34:12;;;;;;;37.30;25.33;;;;;;;;;;5053714;28;20199;-69
2023/02/12 06:36:40;;;;;;;44.63;27.35;;;;;;;;;;5053704;28;20218;-69
2023/02/12 06:39:09;;;;;;;37.27;25.20;;;;;;;;;;5053428;28;20203;-69
2023/02/12 06:41:36;;;;;;;40.83;25.93;;;;;;;;;;5053256;28;20535;-69
2023/02/12 06:44:03;;;;;;;45.93;27.17;;;;;;;;;;5053586;28;20449;-69
2023/02/12 06:46:30;;;;;;;38.70;27.00;;;;;;;;;;5053443;28;20441;-69
2023/02/12 06:48:59;;;;;;;38.55;24.27;;;;;;;;;;5053568;28;20191;-69
2023/02/12 06:51:27;;;;;;;38.43;26.23;;;;;;;;;;5053559;28;20209;-68
2023/02/12 06:53:55;;;;;;;44.42;25.45;;;;;;;;;;5053588;28;20456;-83
2023/02/12 06:56:24;;;;;;;43.88;27.30;;;;;;;;;;5053314;28;20305;-66
2023/02/12 06:58:54;;;;;;;43.53;26.17;;;;;;;;;;5053039;28;20195;-67
2023/02/12 07:01:23;;;;;;;43.15;26.33;;;;;;;;;;5052866;28;20914;-67
2023/02/12 07:03:51;;;;;;;40.23;27.60;;;;;;;;;;5052716;28;20186;-67
2023/02/12 07:06:18;;;;;;;39.30;26.90;;;;;;;;;;5053439;28;20524;-67
2023/02/12 07:08:46;;;;;;;35.00;25.53;;;;;;;;;;5053151;28;20187;-67
2023/02/12 07:11:14;;;;;;;38.72;25.38;;;;;;;;;;5052955;28;20461;-67
2023/02/12 07:13:43;;;;;;;40.72;28.27;;;;;;;;;;5052865;28;20284;-66
2023/02/12 07:16:11;;;;;;;46.13;26.95;;;;;;;;;;5053173;28;20237;-66
2023/02/12 07:18:38;;;;;;;44.72;26.83;;;;;;;;;;5052814;28;20197;-67
2023/02/12 07:21:06;;;;;;;38.17;26.55;;;;;;;;;;5052654;28;20191;-66
2023/02/12 07:23:33;;;;;;;45.92;28.50;;;;;;;;;;5052907;28;20195;-67
2023/02/12 07:26:01;;;;;;;45.80;29.97;;;;;;;;;;5052661;28;20205;-67
2023/02/12 07:28:32;;;;;;;44.70;28.08;;;;;;;;;;5052755;28;20442;-66
2023/02/12 07:31:00;;;;;;;45.40;29.33;;;;;;;;;;5053136;28;20175;-67
2023/02/12 07:33:27;;;;;;;42.58;26.67;;;;;;;;;;5052645;28;20190;-67
2023/02/12 07:35:55;;;;;;;54.28;29.35;;;;;;;;;;5052400;28;20316;-67
2023/02/12 07:38:22;;;;;;;45.00;27.25;;;;;;;;;;5052422;28;20195;-66
2023/02/12 07:40:49;;;;;;;48.50;29.50;;;;;;;;;;5051989;28;20197;-66
2023/02/12 07:43:16;;;;;;;44.03;27.05;;;;;;;;;;5051261;28;20430;-71
2023/02/12 07:45:43;;;;;;;43.75;26.02;;;;;;;;;;5052590;28;20289;-66
2023/02/12 07:48:12;;;;;;;39.50;27.27;;;;;;;;;;5052699;28;20214;-67
2023/02/12 07:50:39;;;;;;;43.95;28.75;;;;;;;;;;5052506;28;20198;-67
2023/02/12 07:53:06;;;;;;;51.42;29.13;;;;;;;;;;5052158;28;20195;-69
2023/02/12 07:55:33;;;;;;;45.07;28.07;;;;;;;;;;5052142;28;20692;-67
2023/02/12 07:58:01;;;;;;;43.90;26.03;;;;;;;;;;5052465;28;20767;-67
2023/02/12 08:00:28;;;;;;;41.20;27.40;;;;;;;;;;5052110;28;20438;-68
2023/02/12 08:02:55;;;;;;;49.47;31.15;;;;;;;;;;5051908;28;20197;-68
2023/02/12 08:05:24;;;;;;;39.45;26.42;;;;;;;;;;5052142;28;20230;-68
2023/02/12 08:07:51;;;;;;;44.03;27.45;;;;;;;;;;5052494;28;20190;-67
2023/02/12 08:10:21;;;;;;;44.88;28.52;;;;;;;;;;5052609;28;20223;-67
2023/02/12 08:12:48;;;;;;;48.28;27.75;;;;;;;;;;5052441;28;20199;-68
2023/02/12 08:15:15;;;;;;;46.57;27.87;;;;;;;;;;5052342;28;20190;-68
2023/02/12 08:17:43;;;;;;;44.72;28.48;;;;;;;;;;5051989;28;20444;-67
2023/02/12 08:20:10;;;;;;;46.33;29.73;;;;;;;;;;5051797;28;20228;-67
2023/02/12 08:22:39;;;;;;;41.23;26.57;;;;;;;;;;5051479;28;20187;-67
2023/02/12 08:25:06;;;;;;;47.73;28.03;;;;;;;;;;5051823;28;20528;-67
2023/02/12 08:27:33;;;;;;;43.10;28.08;;;;;;;;;;5052047;28;20926;-67
2023/02/12 08:30:01;;;;;;;47.33;29.95;;;;;;;;;;5052222;28;20217;-67
2023/02/12 08:32:29;;;;;;;46.55;29.02;;;;;;;;;;5052204;28;20191;-67
2023/02/12 08:34:56;;;;;;;44.95;25.92;;;;;;;;;;5052095;28;20203;-68
2023/02/12 08:37:24;;;;;;;50.27;26.87;;;;;;;;;;5051973;28;20225;-67
2023/02/12 08:39:52;;;;;;;45.50;26.40;;;;;;;;;;5051872;28;20530;-68
2023/02/12 08:42:19;;;;;;;43.15;27.23;;;;;;;;;;5051601;28;21014;-69
2023/02/12 08:44:47;;;;;;;40.83;25.77;;;;;;;;;;5052316;28;20191;-68
2023/02/12 08:47:14;;;;;;;48.80;27.27;;;;;;;;;;5052125;28;20388;-67
2023/02/12 08:49:41;;;;;;;44.37;26.97;;;;;;;;;;5052197;28;20520;-67
2023/02/12 08:52:08;;;;;;;43.03;27.25;;;;;;;;;;5051871;28;20447;-68
2023/02/12 08:54:36;;;;;;;38.80;24.38;;;;;;;;;;5053786;28;20624;-68
2023/02/12 08:57:04;;;;;;;38.97;25.67;;;;;;;;;;5055834;28;20214;-67
2023/02/12 08:59:32;;;;;;;36.03;26.37;;;;;;;;;;5055655;28;20503;-67
2023/02/12 09:01:59;;;;;;;38.47;25.38;;;;;;;;;;5055376;28;20477;-68
2023/02/12 09:04:28;;;;;;;38.80;24.23;;;;;;;;;;5054821;28;20218;-67
2023/02/12 09:06:56;;;;;;;37.30;24.37;;;;;;;;;;5055125;28;20444;-68
2023/02/12 09:09:23;;;;;;;37.07;25.67;;;;;;;;;;5055618;28;20437;-67
2023/02/12 09:11:51;;;;;;;36.30;22.60;;;;;;;;;;5055793;28;20480;-67
2023/02/12 09:14:22;;;;;;;34.57;23.80;;;;;;;;;;5055330;28;20434;-67
2023/02/12 09:16:51;;;;;;;38.27;24.10;;;;;;;;;;5055362;28;20837;-68
2023/02/12 09:19:18;;;;;;;36.70;24.47;;;;;;;;;;5054929;28;20532;-68
2023/02/12 09:21:45;;;;;;;34.70;23.90;;;;;;;;;;5054929;28;20787;-67
2023/02/12 09:24:13;;;;;;;32.37;22.93;;;;;;;;;;5054827;28;20195;-68
2023/02/12 09:26:40;;;;;;;35.70;22.00;;;;;;;;;;5055124;28;20441;-68
2023/02/12 09:29:07;;;;;;;37.33;22.73;;;;;;;;;;5054885;28;20439;-67
2023/02/12 09:31:36;;;;;;;35.60;23.57;;;;;;;;;;5054703;28;20528;-67
2023/02/12 09:34:04;;;;;;;33.77;23.03;;;;;;;;;;5054931;28;20442;-67
2023/02/12 09:36:31;;;;;;;35.57;23.10;;;;;;;;;;5054537;28;20469;-67
2023/02/12 09:38:59;;;;;;;33.47;21.40;;;;;;;;;;5054604;28;20434;-67
2023/02/12 09:41:45;;;;;;;36.73;22.17;;;;;;;;;;5054449;28;20752;-68
2023/02/12 09:44:16;;;;;;;38.20;24.13;;;;;;;;;;5054255;28;20918;-67
2023/02/12 09:46:48;;;;;;;30.40;21.13;;;;;;;;;;5054999;28;20525;-67
2023/02/12 09:49:18;;;;;;;39.60;23.93;;;;;;;;;;5054558;28;20998;-68
2023/02/12 09:51:47;;;;;;;30.77;22.20;;;;;;;;;;5054484;28;20457;-67
2023/02/12 09:54:15;;;;;;;28.70;20.10;;;;;;;;;;5054455;28;20437;-67
2023/02/12 09:56:45;;;;;;;29.47;20.50;;;;;;;;;;5054478;28;20562;-67
2023/02/12 09:59:13;;;;;;;27.80;20.00;;;;;;;;;;5053988;28;20439;-68
2023/02/12 10:01:41;;;;;;;23.90;17.80;;;;;;;;;;5053833;28;20435;-67
2023/02/12 10:04:09;;;;;;;28.20;19.00;;;;;;;;;;5053642;28;20444;-68
2023/02/12 10:06:42;;;;;;;26.23;17.73;;;;;;;;;;5053342;28;20425;-67
2023/02/12 10:09:16;;;;;;;23.03;16.53;;;;;;;;;;5054087;28;20427;-68
2023/02/12 10:11:50;;;;;;;20.07;14.53;;;;;;;;;;5054806;28;20485;-67
2023/02/12 10:14:36;;;;;;;17.40;12.90;;;;;;;;;;5054447;28;20472;-67
2023/02/12 10:17:08;;;;;;;20.00;13.87;;;;;;;;;;5053547;28;20531;-67
2023/02/12 10:19:51;;;;;;;18.73;13.10;;;;;;;;;;5054130;28;20427;-67
2023/02/12 10:22:22;;;;;;;19.33;13.30;;;;;;;;;;5054054;28;20433;-68
2023/02/12 10:24:55;;;;;;;21.13;13.20;;;;;;;;;;5053719;28;20435;-68
2023/02/12 10:27:25;;;;;;;21.03;12.43;;;;;;;;;;5054076;28;20887;-67
2023/02/12 10:29:52;;;;;;;16.93;12.20;;;;;;;;;;5053979;28;20446;-67
2023/02/12 10:32:24;;;;;;;15.60;11.30;;;;;;;;;;5054274;28;20778;-67
2023/02/12 10:34:53;;;;;;;16.63;11.40;;;;;;;;;;5054356;28;20568;-64
2023/02/12 10:37:24;;;;;;;19.50;12.43;;;;;;;;;;5053667;28;20985;-65
2023/02/12 10:39:53;;;;;;;22.23;13.13;;;;;;;;;;5053909;28;20430;-65
2023/02/12 10:42:22;;;;;;;23.37;12.23;;;;;;;;;;5053397;28;20586;-65
2023/02/12 10:44:49;;;;;;;18.10;12.13;;;;;;;;;;5053273;28;20440;-65
2023/02/12 10:47:19;;;;;;;15.20;11.37;;;;;;;;;;5053526;28;20444;-66
2023/02/12 10:49:47;;;;;;;19.37;10.93;;;;;;;;;;5053829;28;20529;-65
2023/02/12 10:52:18;;;;;;;15.83;11.23;;;;;;;;;;5053483;28;20446;-65
2023/02/12 10:54:47;;;;;;;13.00;9.83;;;;;;;;;;5053958;28;20444;-65
2023/02/12 10:57:17;;;;;;;19.50;11.97;;;;;;;;;;5053186;28;20470;-65
2023/02/12 10:59:45;;;;;;;18.17;11.00;;;;;;;;;;5053309;28;20907;-66
2023/02/12 11:02:20;;;;;;;14.33;10.70;;;;;;;;;;5053769;28;20441;-65
2023/02/12 11:04:47;;;;;;;13.47;10.03;;;;;;;;;;5052770;28;20468;-67
2023/02/12 11:07:14;;;;;;;18.50;11.10;;;;;;;;;;5064176;28;20487;-68
2023/02/12 11:09:45;;;;;;;14.90;10.07;;;;;;;;;;5072562;28;20451;-66
2023/02/12 11:12:20;;;;;;;20.70;11.23;;;;;;;;;;5072895;28;20424;-66
2023/02/12 11:14:51;;;;;;;16.60;11.10;;;;;;;;;;5073283;28;20448;-65
2023/02/12 11:17:23;;;;;;;15.93;10.63;;;;;;;;;;5072951;28;20479;-66
2023/02/12 11:20:02;;;;;;;14.57;11.53;;;;;;;;;;5072870;28;20430;-65
2023/02/12 11:22:30;;;;;;;13.60;9.30;;;;;;;;;;5073215;28;20871;-65
2023/02/12 11:25:02;;;;;;;14.77;9.97;;;;;;;;;;5073169;28;20433;-65
2023/02/12 11:27:30;;;;;;;17.17;9.30;;;;;;;;;;5072595;28;20429;-66
2023/02/12 11:30:13;;;;;;;10.13;7.97;;;;;;;;;;5072073;28;20529;-66
2023/02/12 11:32:40;;;;;;;16.03;9.60;;;;;;;;;;5073141;28;20426;-66
2023/02/12 11:35:12;;;;;;;13.67;10.10;;;;;;;;;;5072552;28;20445;-66
2023/02/12 11:37:42;;;;;;;12.57;9.20;;;;;;;;;;5032542;28;20469;-66
2023/02/12 11:40:16;;;;;;;15.00;9.40;;;;;;;;;;5032651;28;20426;-66
2023/02/12 11:42:48;;;;;;;17.33;9.37;;;;;;;;;;5032282;28;20422;-66
2023/02/12 11:45:17;;;;;;;12.57;8.60;;;;;;;;;;5032395;28;20480;-66
2023/02/12 11:47:45;;;;;;;14.07;8.90;;;;;;;;;;5032297;28;20552;-66
2023/02/12 11:50:19;;;;;;;12.03;9.50;;;;;;;;;;5031899;28;20950;-66
2023/02/12 11:52:49;;;;;;;11.40;9.50;;;;;;;;;;5032195;28;20423;-66
2023/02/12 11:55:22;;;;;;;9.87;8.17;;;;;;;;;;5032667;28;20433;-66
2023/02/12 11:57:51;;;;;;;11.77;9.20;;;;;;;;;;5031992;28;20462;-66
2023/02/12 12:00:20;;;;;;;12.53;8.67;;;;;;;;;;5032759;28;20435;-66
2023/02/12 12:02:50;;;;;;;17.17;11.60;;;;;;;;;;5032481;28;20523;-66
2023/02/12 12:05:19;;;;;;;16.07;11.40;;;;;;;;;;5032838;28;20478;-66
2023/02/12 12:07:50;;;;;;;9.80;8.80;;;;;;;;;;5051721;28;20443;-66
2023/02/12 12:10:20;;;;;;;12.50;9.37;;;;;;;;;;5071737;28;20916;-67
2023/02/12 12:12:52;;;;;;;13.00;9.20;;;;;;;;;;5072606;28;20543;-67
2023/02/12 12:20:57;;;;;;;15.97;9.30;;;;;;;;;;5072642;28;20396;-66
2023/02/12 12:23:26;;;;;;;12.37;8.90;;;;;;;;;;5072072;28;20492;-66
2023/02/12 12:25:54;;;;;;;16.27;8.37;;;;;;;;;;5072213;28;20439;-66
2023/02/12 12:28:31;;;;;;;11.30;10.10;;;;;;;;;;5071950;28;20437;-67
2023/02/12 12:31:02;;;;;;;14.17;9.50;;;;;;;;;;5075797;28;20414;-66
2023/02/12 12:33:35;;;;;;;13.87;8.90;;;;;;;;;;5075853;28;20513;-67
2023/02/12 12:36:24;;;;;;;13.10;9.50;;;;;;;;;;5068979;28;20444;-66
2023/02/12 12:38:56;;;;;;;12.20;8.53;;;;;;;;;;5048185;28;20447;-66
2023/02/12 12:41:28;;;;;;;15.10;11.40;;;;;;;;;;5055646;28;20429;-67
2023/02/12 12:44:04;;;;;;;19.70;10.37;;;;;;;;;;5055901;28;20426;-67
2023/02/12 12:46:37;;;;;;;15.10;9.90;;;;;;;;;;5054730;28;20454;-67
2023/02/12 12:49:16;;;;;;;11.40;9.23;;;;;;;;;;5055510;28;20441;-67
2023/02/12 12:51:52;;;;;;;10.90;8.30;;;;;;;;;;5055352;28;20437;-67
2023/02/12 12:54:25;;;;;;;9.13;7.30;;;;;;;;;;5056066;28;20422;-67
2023/02/12 12:56:59;;;;;;;10.37;7.10;;;;;;;;;;5055604;28;20493;-67
2023/02/12 12:59:47;;;;;;;11.83;6.63;;;;;;;;;;5055510;28;20441;-66
2023/02/12 13:02:37;;;;;;;9.27;6.47;;;;;;;;;;5055142;28;20430;-66
2023/02/12 13:05:18;;;;;;;13.93;6.30;;;;;;;;;;5055845;28;20466;-66
2023/02/12 13:07:50;;;;;;;10.50;6.53;;;;;;;;;;5055132;28;20429;-66
2023/02/12 13:10:24;;;;;;;11.77;7.03;;;;;;;;;;5055152;28;20434;-67
2023/02/12 13:12:55;;;;;;;8.20;5.70;;;;;;;;;;5054986;28;20425;-67
2023/02/12 13:15:27;;;;;;;10.90;6.93;;;;;;;;;;5055305;28;20512;-67
2023/02/12 13:17:57;;;;;;;12.33;6.90;;;;;;;;;;5054818;28;20475;-66
2023/02/12 13:20:29;;;;;;;12.60;7.23;;;;;;;;;;5055207;28;20453;-66
2023/02/12 13:22:59;;;;;;;10.43;6.80;;;;;;;;;;5055080;28;20426;-67
2023/02/12 13:25:29;;;;;;;9.70;7.70;;;;;;;;;;5055349;28;20752;-66
2023/02/12 13:27:58;;;;;;;11.90;7.20;;;;;;;;;;5054296;28;20846;-69
2023/02/12 13:30:29;;;;;;;9.97;6.73;;;;;;;;;;5054838;28;20462;-67
2023/02/12 13:33:01;;;;;;;11.30;7.47;;;;;;;;;;5055003;28;20429;-67
2023/02/12 13:35:29;;;;;;;11.53;7.33;;;;;;;;;;5054689;28;20536;-68
2023/02/12 13:37:57;;;;;;;15.90;8.40;;;;;;;;;;5054567;28;20591;-67
2023/02/12 13:40:25;;;;;;;11.07;7.83;;;;;;;;;;5053885;28;20438;-67
2023/02/12 13:42:56;;;;;;;12.83;9.00;;;;;;;;;;5054889;28;20914;-67
2023/02/12 13:45:31;;;;;;;11.13;7.27;;;;;;;;;;5055326;28;20755;-67
2023/02/12 13:48:12;;;;;;;10.67;9.23;;;;;;;;;;5054810;28;20430;-67
2023/02/12 13:50:42;;;;;;;14.60;8.37;;;;;;;;;;5054828;28;20433;-68
2023/02/12 13:53:16;;;;;;;13.50;10.10;;;;;;;;;;5055145;28;20535;-67
2023/02/12 13:55:53;;;;;;;13.50;8.37;;;;;;;;;;5055194;28;20514;-67
2023/02/12 13:58:39;;;;;;;12.23;9.10;;;;;;;;;;5054662;28;20536;-67
2023/02/12 14:01:11;;;;;;;15.07;9.50;;;;;;;;;;5055457;28;20773;-67
2023/02/12 14:03:38;;;;;;;11.60;7.60;;;;;;;;;;5055091;28;20427;-68
2023/02/12 14:06:13;;;;;;;16.57;10.57;;;;;;;;;;5055402;28;20474;-68
2023/02/12 14:08:42;;;;;;;13.57;8.77;;;;;;;;;;5054222;28;20435;-68
2023/02/12 14:11:10;;;;;;;17.20;8.57;;;;;;;;;;5054453;28;20442;-68
2023/02/12 14:13:46;;;;;;;12.77;9.97;;;;;;;;;;5054864;28;20442;-68
2023/02/12 14:16:36;;;;;;;9.83;8.30;;;;;;;;;;5054963;28;20418;-68
2023/02/12 14:19:18;;;;;;;10.93;7.90;;;;;;;;;;5054497;28;20465;-68
2023/02/12 14:21:46;;;;;;;9.80;7.20;;;;;;;;;;5053569;28;20444;-68
2023/02/12 14:24:34;;;;;;;9.50;6.90;;;;;;;;;;5054468;28;20461;-68
2023/02/12 14:27:01;;;;;;;9.60;8.10;;;;;;;;;;5046599;28;20447;-68
2023/02/12 14:29:29;;;;;;;12.37;8.20;;;;;;;;;;5053950;28;20439;-68
2023/02/12 14:31:57;;;;;;;10.30;7.43;;;;;;;;;;5054000;28;20446;-68
2023/02/12 14:34:48;;;;;;;13.77;8.00;;;;;;;;;;5054388;28;20458;-68
2023/02/12 14:37:17;;;;;;;9.03;6.87;;;;;;;;;;5054349;28;20436;-69
2023/02/12 14:39:45;;;;;;;9.20;6.73;;;;;;;;;;5054038;28;20438;-68
2023/02/12 14:42:27;;;;;;;7.83;6.53;;;;;;;;;;5054357;28;20447;-68
2023/02/12 14:44:56;;;;;;;8.87;7.37;;;;;;;;;;5053232;28;20441;-68